Time;durP1;ratioP1;P1;durP2;ratioP2;P2;SDS_P1;SDS_P2;PMS_P1;PMS_P2;Temp;Humidity;BMP_temperature;BMP_pressure;BME280_temperature;BME280_humidity;BME280_pressure;Samples;Min_cycle;Max_cycle;Signal;HPM_P1;HPM_P2
2022/07/31 00:00:24;;;;;;;5.70;3.25;;;;;;;20.82;65.90;99781.02;1730743;82;21093;-72
2022/07/31 00:02:52;;;;;;;5.53;3.45;;;;;;;20.79;65.54;99772.91;1691792;84;21120;-73
2022/07/31 00:05:19;;;;;;;10.45;3.50;;;;;;;20.79;65.20;99780.30;1679478;85;21268;-73
2022/07/31 00:07:46;;;;;;;3.08;2.75;;;;;;;20.81;64.89;99775.33;1671521;84;21054;-74
2022/07/31 00:10:12;;;;;;;5.35;2.58;;;;;;;20.81;64.44;99769.86;1692190;82;21070;-74
2022/07/31 00:12:39;;;;;;;5.10;3.42;;;;;;;20.81;64.12;99766.54;1681256;84;21126;-75
2022/07/31 00:15:08;;;;;;;4.40;4.00;;;;;;;20.89;63.18;99756.22;1678046;85;21547;-73
2022/07/31 00:17:41;;;;;;;5.03;3.90;;;;;;;20.89;63.18;99756.22;1680454;85;21183;-74
2022/07/31 00:20:12;;;;;;;4.35;3.22;;;;;;;20.92;63.18;99760.79;1700019;82;20979;-72
2022/07/31 00:22:42;;;;;;;6.87;3.02;;;;;;;20.96;63.08;99756.33;1704060;82;21042;-74
2022/07/31 00:25:11;;;;;;;5.75;2.87;;;;;;;20.93;63.11;99752.84;1736454;82;20981;-74
2022/07/31 00:27:38;;;;;;;3.37;3.05;;;;;;;20.92;63.19;99750.66;1736283;81;21020;-74
2022/07/31 00:30:06;;;;;;;3.30;3.00;;;;;;;20.91;63.19;99754.52;1731352;82;21118;-74
2022/07/31 00:32:33;;;;;;;2.75;2.55;;;;;;;20.91;63.36;99762.72;1734854;81;20990;-74
2022/07/31 00:35:00;;;;;;;3.17;2.87;;;;;;;20.85;63.67;99755.80;1711679;82;21061;-73
2022/07/31 00:37:27;;;;;;;8.80;3.50;;;;;;;20.80;64.00;99749.91;1736223;82;21483;-73
2022/07/31 00:39:53;;;;;;;4.45;3.12;;;;;;;20.74;64.36;99749.00;1735197;82;21491;-72
2022/07/31 00:42:22;;;;;;;5.97;3.20;;;;;;;20.64;64.76;99746.53;1735990;81;21097;-72
2022/07/31 00:44:50;;;;;;;4.15;3.62;;;;;;;20.55;65.14;99745.69;1735957;82;21034;-73
2022/07/31 00:47:16;;;;;;;6.33;3.75;;;;;;;20.46;65.32;99742.92;1735966;82;21073;-73
2022/07/31 00:49:44;;;;;;;11.78;3.50;;;;;;;20.40;65.63;99748.27;1734585;82;21018;-74
2022/07/31 00:52:11;;;;;;;4.20;3.47;;;;;;;20.32;65.95;99743.58;1708643;81;21006;-74
2022/07/31 00:54:38;;;;;;;5.05;3.35;;;;;;;20.21;66.11;99736.72;1706504;84;21149;-73
2022/07/31 00:57:06;;;;;;;3.52;3.05;;;;;;;20.17;66.35;99737.91;1706169;84;21577;-74
2022/07/31 00:59:34;;;;;;;4.25;3.22;;;;;;;20.02;66.60;99741.83;1719722;82;21606;-74
2022/07/31 01:02:02;;;;;;;3.35;3.08;;;;;;;20.02;66.60;99741.83;1710926;81;21496;-74
2022/07/31 01:04:30;;;;;;;4.72;3.65;;;;;;;20.03;66.54;99751.64;1720593;81;21617;-71
2022/07/31 01:06:58;;;;;;;3.62;3.15;;;;;;;19.97;66.74;99750.69;1735343;82;21997;-74
2022/07/31 01:09:26;;;;;;;5.85;3.85;;;;;;;19.92;67.08;99747.53;1696374;84;21055;-74
2022/07/31 01:12:18;;;;;;;5.17;3.20;;;;;;;19.88;67.17;99737.55;1674409;85;20987;-74
2022/07/31 01:14:51;;;;;;;9.38;3.17;;;;;;;19.84;67.27;99732.45;1673485;85;21567;-74
2022/07/31 01:17:20;;;;;;;4.42;3.70;;;;;;;19.86;67.21;99737.84;1673912;85;21125;-74
2022/07/31 01:19:48;;;;;;;3.30;3.00;;;;;;;19.88;67.15;99743.00;1672766;85;21085;-74
2022/07/31 01:22:50;;;;;;;4.20;3.67;;;;;;;19.87;67.28;99738.66;1673219;84;21006;-74
2022/07/31 01:25:25;;;;;;;3.15;2.90;;;;;;;19.84;67.32;99737.92;1668320;84;20947;-75
2022/07/31 01:28:49;;;;;;;4.08;3.55;;;;;;;19.80;67.51;99735.01;1669956;85;21015;-73
2022/07/31 01:31:20;;;;;;;3.67;3.37;;;;;;;19.77;67.58;99732.06;1672195;84;21583;-76
2022/07/31 01:33:54;;;;;;;8.35;3.62;;;;;;;19.73;67.69;99726.98;1675813;84;21072;-75
2022/07/31 01:36:23;;;;;;;7.72;3.60;;;;;;;19.66;67.83;99733.45;1688660;83;21062;-73
2022/07/31 01:38:54;;;;;;;3.22;2.87;;;;;;;19.65;67.83;99729.91;1671359;83;21013;-75
2022/07/31 01:41:25;;;;;;;13.68;3.45;;;;;;;19.65;67.94;99729.09;1645276;87;21124;-75
2022/07/31 01:43:56;;;;;;;4.47;3.90;;;;;;;19.61;68.08;99728.11;1666280;85;21557;-74
2022/07/31 01:46:25;;;;;;;5.47;4.12;;;;;;;19.56;68.09;99722.21;1662158;85;21899;-74
2022/07/31 01:48:51;;;;;;;3.33;3.02;;;;;;;19.55;68.23;99728.77;1652222;85;21105;-75
2022/07/31 01:51:22;;;;;;;6.95;4.00;;;;;;;19.54;68.36;99723.88;1671570;84;21117;-73
2022/07/31 01:53:49;;;;;;;7.30;3.30;;;;;;;19.54;68.42;99725.79;1724315;82;21552;-74
2022/07/31 01:56:18;;;;;;;4.20;3.80;;;;;;;19.51;68.50;99716.87;1731270;82;21026;-74
2022/07/31 01:58:46;;;;;;;4.80;4.30;;;;;;;19.51;68.55;99717.68;1699134;82;21167;-77
2022/07/31 02:01:33;;;;;;;8.05;4.60;;;;;;;19.54;68.53;99713.52;1709916;82;20950;-75
2022/07/31 02:04:00;;;;;;;3.83;2.98;;;;;;;19.58;68.30;99718.59;1709815;82;21008;-75
2022/07/31 02:06:27;;;;;;;4.30;3.30;;;;;;;19.58;68.11;99706.31;1704468;81;20968;-75
2022/07/31 02:08:55;;;;;;;7.95;3.10;;;;;;;19.55;68.13;99709.67;1751462;81;21046;-77
2022/07/31 02:11:22;;;;;;;4.33;3.58;;;;;;;19.52;68.14;99706.99;1718865;81;21121;-78
2022/07/31 02:13:49;;;;;;;4.40;3.62;;;;;;;19.48;68.21;99709.28;1720581;81;20974;-78
2022/07/31 02:16:17;;;;;;;6.08;3.22;;;;;;;19.43;68.26;99708.81;1736453;82;20960;-77
2022/07/31 02:18:49;;;;;;;4.90;3.08;;;;;;;19.39;68.47;99709.73;1744091;82;20995;-77
2022/07/31 02:21:25;;;;;;;8.60;3.45;;;;;;;19.37;68.58;99707.33;1733228;81;21008;-79
2022/07/31 02:23:52;;;;;;;4.62;3.65;;;;;;;19.32;68.64;99702.55;1697027;84;21777;-80
2022/07/31 02:26:20;;;;;;;7.90;3.27;;;;;;;19.28;68.73;99712.46;1675527;85;21137;-78
2022/07/31 02:28:48;;;;;;;5.10;3.30;;;;;;;19.26;68.77;99710.58;1673686;84;21022;-80
2022/07/31 02:31:16;;;;;;;4.58;3.47;;;;;;;19.25;68.92;99712.50;1673785;85;21539;-80
2022/07/31 02:33:45;;;;;;;6.20;3.22;;;;;;;19.22;68.95;99711.77;1673502;84;21073;-78
2022/07/31 02:36:13;;;;;;;5.87;4.33;;;;;;;19.20;69.11;99718.06;1672922;84;21160;-79
2022/07/31 02:38:40;;;;;;;4.03;3.42;;;;;;;19.16;69.43;99721.16;1673743;85;21572;-78
2022/07/31 02:41:07;;;;;;;3.87;3.22;;;;;;;19.11;69.63;99729.44;1653059;85;21073;-78
2022/07/31 02:43:34;;;;;;;6.47;3.55;;;;;;;19.09;69.70;99730.29;1651339;85;21113;-77
2022/07/31 02:46:06;;;;;;;6.12;2.92;;;;;;;19.06;69.67;99731.72;1672478;85;20998;-76
2022/07/31 02:48:33;;;;;;;2.83;2.62;;;;;;;19.05;69.62;99730.09;1673608;85;21074;-78
2022/07/31 02:51:02;;;;;;;4.95;3.10;;;;;;;19.04;69.70;99724.97;1673399;85;21100;-77
2022/07/31 02:53:29;;;;;;;3.27;2.70;;;;;;;19.03;69.65;99728.25;1673536;85;21543;-78
2022/07/31 02:55:59;;;;;;;3.72;3.15;;;;;;;19.03;69.59;99730.17;1673595;84;21594;-77
2022/07/31 02:58:26;;;;;;;3.35;2.98;;;;;;;19.02;69.53;99735.36;1673159;85;21069;-76
2022/07/31 03:01:04;;;;;;;3.08;2.77;;;;;;;18.98;69.52;99737.89;1667257;84;21861;-78
2022/07/31 03:03:31;;;;;;;3.67;2.55;;;;;;;18.99;69.56;99734.62;1706578;83;20936;-77
2022/07/31 03:05:58;;;;;;;4.65;2.90;;;;;;;19.00;69.48;99733.48;1675615;85;21321;-75
2022/07/31 03:08:26;;;;;;;4.03;2.95;;;;;;;18.99;69.33;99738.12;1676488;85;21033;-78
2022/07/31 03:10:54;;;;;;;3.72;2.90;;;;;;;19.01;69.25;99739.19;1676516;85;21064;-75
2022/07/31 03:13:25;;;;;;;4.40;2.95;;;;;;;19.04;69.19;99738.02;1722189;81;21036;-76
2022/07/31 03:15:52;;;;;;;3.30;2.25;;;;;;;19.07;69.07;99740.16;1728593;83;21483;-78
2022/07/31 03:18:20;;;;;;;3.27;2.95;;;;;;;19.10;68.91;99744.17;1736184;82;21123;-78
2022/07/31 03:20:52;;;;;;;5.10;2.58;;;;;;;19.12;68.71;99744.14;1714600;82;21097;-77
2022/07/31 03:23:22;;;;;;;12.93;4.05;;;;;;;19.15;68.56;99748.16;1726501;82;21093;-78
2022/07/31 03:25:52;;;;;;;6.58;2.60;;;;;;;19.15;68.44;99745.44;1683954;85;21136;-77
2022/07/31 03:28:20;;;;;;;3.37;2.20;;;;;;;19.17;68.37;99750.05;1696821;82;21034;-77
2022/07/31 03:30:50;;;;;;;4.03;2.58;;;;;;;19.20;68.35;99744.52;1736810;82;21015;-76
2022/07/31 03:33:17;;;;;;;5.15;2.90;;;;;;;19.21;68.34;99742.86;1732031;82;21542;-77
2022/07/31 03:35:43;;;;;;;4.67;2.72;;;;;;;19.21;68.36;99737.41;1673471;82;21022;-76
2022/07/31 03:38:12;;;;;;;3.67;2.72;;;;;;;19.23;68.34;99732.47;1736589;82;21264;-77
2022/07/31 03:40:41;;;;;;;4.75;2.60;;;;;;;19.21;68.23;99731.95;1676089;82;21571;-76
2022/07/31 03:43:08;;;;;;;3.83;2.85;;;;;;;19.22;68.12;99728.13;1707436;82;21022;-77
2022/07/31 03:45:35;;;;;;;3.77;3.02;;;;;;;19.24;68.01;99731.89;1735657;82;21076;-79
2022/07/31 03:48:02;;;;;;;8.98;4.45;;;;;;;19.24;68.12;99732.70;1735005;82;21010;-78
2022/07/31 03:50:29;;;;;;;4.72;3.17;;;;;;;19.25;67.91;99729.41;1731623;81;21796;-78
2022/07/31 03:52:57;;;;;;;2.83;2.62;;;;;;;19.26;67.84;99729.67;1669922;85;21080;-78
2022/07/31 03:55:24;;;;;;;6.80;4.22;;;;;;;19.27;67.78;99725.28;1719048;83;21500;-77
2022/07/31 03:57:51;;;;;;;5.03;3.17;;;;;;;19.30;67.79;99726.02;1736094;82;21081;-77
2022/07/31 04:00:21;;;;;;;9.70;5.40;;;;;;;19.34;67.69;99727.58;1736479;82;21495;-77
2022/07/31 04:02:46;;;;;;;6.47;4.85;;;;;;;19.36;67.66;99727.53;1736031;82;21272;-78
2022/07/31 04:05:17;;;;;;;5.22;3.50;;;;;;;19.40;67.38;99729.08;1717671;81;20930;-78
2022/07/31 04:07:46;;;;;;;5.70;3.67;;;;;;;19.42;67.33;99726.87;1736289;82;21093;-77
2022/07/31 04:10:12;;;;;;;4.80;3.90;;;;;;;19.44;67.43;99724.66;1735296;81;21083;-78
2022/07/31 04:12:39;;;;;;;7.25;3.42;;;;;;;19.44;67.31;99722.73;1722900;82;21083;-81
2022/07/31 04:15:06;;;;;;;7.00;3.55;;;;;;;19.46;67.30;99720.52;1715402;82;21082;-80
2022/07/31 04:17:35;;;;;;;4.28;3.00;;;;;;;19.47;67.23;99722.11;1691917;84;21574;-80
2022/07/31 04:20:04;;;;;;;7.72;2.65;;;;;;;19.51;67.22;99720.96;1686266;84;21093;-80
2022/07/31 04:22:31;;;;;;;3.92;2.70;;;;;;;19.54;67.21;99722.51;1679479;85;21046;-81
2022/07/31 04:24:58;;;;;;;5.65;2.83;;;;;;;19.55;67.20;99719.23;1641298;84;21236;-81
2022/07/31 04:27:26;;;;;;;4.12;3.72;;;;;;;19.58;67.09;99717.23;1672401;84;21830;-78
2022/07/31 04:29:54;;;;;;;4.17;2.80;;;;;;;19.65;66.59;99719.55;1677321;84;21519;-78
2022/07/31 04:32:22;;;;;;;4.20;2.40;;;;;;;19.71;66.25;99728.65;1692816;84;21631;-77
2022/07/31 04:34:51;;;;;;;3.37;2.95;;;;;;;19.79;65.98;99726.56;1682964;84;21018;-78
2022/07/31 04:37:19;;;;;;;1.90;1.80;;;;;;;19.87;65.73;99716.81;1677937;85;21022;-76
2022/07/31 04:39:45;;;;;;;6.08;3.15;;;;;;;19.97;65.34;99718.74;1680248;85;21148;-77
2022/07/31 04:42:12;;;;;;;2.50;2.30;;;;;;;20.04;65.11;99715.58;1666082;84;21083;-77
2022/07/31 04:44:41;;;;;;;4.22;2.35;;;;;;;20.14;64.84;99713.96;1666752;84;21029;-77
2022/07/31 04:47:07;;;;;;;2.62;2.02;;;;;;;20.21;64.25;99717.05;1678052;84;21061;-75
2022/07/31 04:49:36;;;;;;;4.62;2.22;;;;;;;20.29;63.84;99714.91;1677818;85;21023;-73
2022/07/31 04:52:04;;;;;;;2.77;2.40;;;;;;;20.39;63.56;99716.59;1731098;81;21071;-76
2022/07/31 04:54:32;;;;;;;2.12;1.82;;;;;;;20.47;63.33;99714.48;1699761;83;20995;-74
2022/07/31 04:56:59;;;;;;;4.25;2.25;;;;;;;20.55;63.10;99717.81;1684552;85;21770;-76
2022/07/31 04:59:26;;;;;;;2.40;2.00;;;;;;;20.63;62.85;99714.30;1649003;84;20969;-75
2022/07/31 05:01:54;;;;;;;2.65;2.37;;;;;;;20.70;62.68;99713.84;1653715;86;21605;-75
2022/07/31 05:04:23;;;;;;;3.87;1.92;;;;;;;20.77;62.56;99713.63;1686353;83;21147;-74
2022/07/31 05:06:50;;;;;;;2.33;1.70;;;;;;;20.84;62.49;99719.45;1669229;83;21008;-74
2022/07/31 05:09:23;;;;;;;6.20;2.27;;;;;;;20.93;62.51;99720.03;1673272;85;21322;-74
2022/07/31 05:11:51;;;;;;;5.47;2.10;;;;;;;20.99;62.28;99718.20;1673924;85;21030;-77
2022/07/31 05:14:20;;;;;;;5.22;1.92;;;;;;;21.09;61.95;99718.47;1670811;84;22196;-73
2022/07/31 05:16:48;;;;;;;4.87;2.02;;;;;;;21.16;61.35;99710.06;1646287;87;21562;-75
2022/07/31 05:19:16;;;;;;;2.05;1.57;;;;;;;21.25;60.33;99719.08;1647160;87;21942;-73
2022/07/31 05:22:03;;;;;;;4.40;1.82;;;;;;;21.32;60.19;99718.62;1621706;85;21035;-75
2022/07/31 05:24:41;;;;;;;6.25;1.85;;;;;;;21.40;60.16;99711.53;1672734;85;20990;-75
2022/07/31 05:27:10;;;;;;;7.55;2.30;;;;;;;21.47;60.13;99711.87;1673372;84;21093;-75
2022/07/31 05:29:39;;;;;;;3.17;2.25;;;;;;;21.52;59.96;99706.24;1656127;85;21580;-76
2022/07/31 05:32:06;;;;;;;2.62;2.00;;;;;;;21.62;59.80;99712.20;1654488;84;20978;-77
2022/07/31 05:34:34;;;;;;;5.67;1.82;;;;;;;21.71;59.58;99710.83;1671207;84;21523;-79
2022/07/31 05:37:01;;;;;;;1.80;1.70;;;;;;;21.78;59.31;99712.50;1650106;84;21064;-80
2022/07/31 05:39:30;;;;;;;2.22;2.02;;;;;;;21.84;58.68;99706.30;1720534;83;21116;-81
2022/07/31 05:42:15;;;;;;;4.22;2.30;;;;;;;21.88;58.31;99710.80;1736198;81;21157;-78
2022/07/31 05:45:00;;;;;;;2.30;1.95;;;;;;;21.95;58.54;99707.05;1734951;82;21040;-75
2022/07/31 05:47:27;;;;;;;2.22;2.02;;;;;;;22.04;58.44;99709.20;1735979;82;21018;-74
2022/07/31 05:49:54;;;;;;;5.30;3.02;;;;;;;22.12;58.00;99709.75;1736197;82;21690;-76
2022/07/31 05:52:21;;;;;;;6.03;1.80;;;;;;;22.20;57.66;99710.06;1732729;81;21093;-75
2022/07/31 05:54:50;;;;;;;2.37;1.60;;;;;;;22.28;57.19;99709.23;1729616;82;21986;-76
2022/07/31 05:57:35;;;;;;;3.00;2.22;;;;;;;22.37;56.50;99714.92;1704831;81;21007;-76
2022/07/31 06:00:05;;;;;;;2.40;1.42;;;;;;;22.46;56.19;99713.52;1722278;81;21131;-76
2022/07/31 06:02:34;;;;;;;6.87;2.22;;;;;;;22.55;55.92;99713.72;1727937;82;21132;-76
2022/07/31 06:05:09;;;;;;;7.30;2.00;;;;;;;22.64;55.66;99711.53;1727757;82;21015;-76
2022/07/31 06:07:36;;;;;;;2.65;2.12;;;;;;;22.71;55.49;99714.02;1725615;83;21026;-77
2022/07/31 06:10:03;;;;;;;5.12;2.47;;;;;;;22.78;55.04;99718.41;1684800;82;21027;-78
2022/07/31 06:12:31;;;;;;;2.52;2.33;;;;;;;22.84;54.97;99712.98;1674672;83;21044;-75
2022/07/31 06:14:59;;;;;;;2.15;1.82;;;;;;;22.91;54.90;99708.36;1673867;84;20987;-76
2022/07/31 06:17:34;;;;;;;2.33;2.12;;;;;;;22.97;54.83;99711.94;1665454;85;21081;-78
2022/07/31 06:20:01;;;;;;;2.95;1.90;;;;;;;23.05;54.59;99710.30;1648646;85;21686;-79
2022/07/31 06:22:28;;;;;;;1.98;1.60;;;;;;;23.12;54.13;99711.16;1667371;84;21077;-77
2022/07/31 06:24:58;;;;;;;7.00;1.82;;;;;;;23.20;53.83;99713.83;1701877;84;20997;-78
2022/07/31 06:27:25;;;;;;;14.78;2.50;;;;;;;23.27;53.52;99718.21;1701778;83;20949;-75
2022/07/31 06:29:52;;;;;;;2.70;1.70;;;;;;;23.32;53.43;99713.90;1650594;84;21046;-76
2022/07/31 06:32:21;;;;;;;4.10;2.83;;;;;;;23.39;53.20;99707.89;1655752;84;21201;-74
2022/07/31 06:34:48;;;;;;;4.45;2.10;;;;;;;23.44;53.38;99699.45;1673541;85;21073;-79
2022/07/31 06:37:18;;;;;;;7.55;2.35;;;;;;;23.54;53.24;99706.52;1673523;85;21030;-79
2022/07/31 06:39:46;;;;;;;3.15;2.27;;;;;;;23.61;52.99;99714.44;1648645;85;21523;-78
2022/07/31 06:42:28;;;;;;;2.77;2.22;;;;;;;23.71;52.63;99709.91;1651992;84;21058;-78
2022/07/31 06:45:05;;;;;;;8.43;2.90;;;;;;;23.80;52.03;99707.08;1705001;83;21155;-81
2022/07/31 06:47:52;;;;;;;2.70;2.17;;;;;;;23.87;51.20;99709.53;1708860;82;20968;-78
2022/07/31 06:50:29;;;;;;;3.70;2.00;;;;;;;23.93;50.63;99709.33;1731581;82;21066;-77
2022/07/31 06:53:14;;;;;;;2.95;1.80;;;;;;;23.98;50.20;99696.16;1714901;82;21069;-76
2022/07/31 06:55:41;;;;;;;7.97;2.22;;;;;;;24.05;50.32;99687.37;1738584;82;21065;-77
2022/07/31 06:58:11;;;;;;;4.03;2.60;;;;;;;24.10;50.04;99689.91;1725734;81;21575;-73
2022/07/31 07:00:40;;;;;;;8.13;2.17;;;;;;;24.14;49.97;99683.39;1715550;81;20934;-75
2022/07/31 07:03:06;;;;;;;3.62;2.30;;;;;;;24.21;50.11;99685.62;1735771;81;21575;-75
2022/07/31 07:05:34;;;;;;;8.20;1.65;;;;;;;24.27;49.98;99682.86;1735869;82;21508;-75
2022/07/31 07:08:02;;;;;;;10.10;3.15;;;;;;;24.31;49.85;99668.13;1725069;83;20991;-75
2022/07/31 07:10:30;;;;;;;14.45;2.62;;;;;;;24.38;49.62;99674.41;1704755;82;21310;-76
2022/07/31 07:12:57;;;;;;;1.87;1.52;;;;;;;24.43;49.43;99665.13;1727763;83;21070;-77
2022/07/31 07:15:23;;;;;;;3.98;2.58;;;;;;;24.50;48.63;99666.19;1728524;81;21567;-74
2022/07/31 07:17:51;;;;;;;2.92;1.77;;;;;;;24.55;48.31;99663.78;1732236;81;21084;-76
2022/07/31 07:20:20;;;;;;;3.60;2.52;;;;;;;24.61;48.01;99662.39;1714000;81;21073;-75
2022/07/31 07:22:47;;;;;;;6.42;2.27;;;;;;;24.66;47.66;99666.28;1705154;82;21532;-76
2022/07/31 07:25:19;;;;;;;10.30;2.42;;;;;;;24.70;47.26;99665.25;1735417;82;21047;-76
2022/07/31 07:27:46;;;;;;;1.70;1.37;;;;;;;24.77;47.06;99663.31;1712486;82;21013;-76
2022/07/31 07:30:13;;;;;;;4.28;1.65;;;;;;;24.85;46.82;99657.45;1695609;83;21082;-74
2022/07/31 07:32:41;;;;;;;5.78;1.42;;;;;;;24.91;46.85;99661.03;1674315;81;21051;-75
2022/07/31 07:35:11;;;;;;;7.75;2.05;;;;;;;24.97;46.60;99667.11;1733992;81;21104;-74
2022/07/31 07:37:41;;;;;;;2.67;1.72;;;;;;;25.03;46.54;99659.66;1700389;83;21038;-74
2022/07/31 07:40:10;;;;;;;3.65;2.83;;;;;;;25.10;45.64;99664.56;1727490;81;21057;-75
2022/07/31 07:42:38;;;;;;;4.20;1.90;;;;;;;25.16;45.57;99661.80;1709052;83;20998;-73
2022/07/31 07:45:06;;;;;;;3.25;2.52;;;;;;;25.20;45.58;99659.95;1728490;83;21037;-76
2022/07/31 07:47:35;;;;;;;2.12;1.60;;;;;;;25.23;44.77;99662.61;1726471;81;21968;-74
2022/07/31 07:50:05;;;;;;;3.80;1.95;;;;;;;25.23;44.60;99666.73;1694310;82;21095;-76
2022/07/31 07:52:40;;;;;;;10.85;1.30;;;;;;;25.25;44.56;99667.17;1670249;85;21076;-79
2022/07/31 07:55:12;;;;;;;5.08;2.20;;;;;;;25.31;43.62;99661.66;1708841;81;21121;-76
2022/07/31 07:57:44;;;;;;;2.77;1.80;;;;;;;25.37;43.83;99666.55;1654253;84;21081;-77
2022/07/31 08:00:29;;;;;;;3.10;1.92;;;;;;;25.44;43.86;99656.33;1726160;81;22063;-80
2022/07/31 08:02:59;;;;;;;3.85;2.05;;;;;;;25.54;43.55;99662.72;1675817;82;21578;-76
2022/07/31 08:05:26;;;;;;;4.17;1.80;;;;;;;25.61;43.84;99664.34;1638536;86;21029;-75
2022/07/31 08:07:53;;;;;;;7.03;1.62;;;;;;;25.65;42.78;99668.00;1648079;85;21042;-77
2022/07/31 08:10:21;;;;;;;7.12;1.72;;;;;;;25.69;42.86;99663.39;1646321;87;21077;-77
2022/07/31 08:12:57;;;;;;;1.77;1.60;;;;;;;25.72;42.69;99659.91;1645820;84;21795;-77
2022/07/31 08:15:42;;;;;;;2.22;1.67;;;;;;;25.78;42.48;99659.09;1666275;85;21096;-76
2022/07/31 08:18:16;;;;;;;5.37;1.75;;;;;;;25.88;42.20;99662.72;1652894;85;21137;-72
2022/07/31 08:20:42;;;;;;;5.85;1.65;;;;;;;25.99;42.21;99665.97;1646642;85;21113;-73
2022/07/31 08:23:09;;;;;;;6.90;1.82;;;;;;;26.09;41.94;99665.26;1634801;85;21126;-73
2022/07/31 08:25:39;;;;;;;2.80;1.75;;;;;;;26.16;41.30;99661.30;1652556;85;22035;-76
2022/07/31 08:28:07;;;;;;;6.33;1.85;;;;;;;26.20;41.20;99658.05;1652029;85;21041;-73
2022/07/31 08:30:34;;;;;;;2.37;1.65;;;;;;;26.24;41.50;99656.20;1673535;85;21033;-74
2022/07/31 08:33:01;;;;;;;3.25;2.12;;;;;;;26.29;41.09;99653.19;1658612;84;21008;-76
2022/07/31 08:35:36;;;;;;;3.35;1.95;;;;;;;26.32;41.60;99656.63;1666791;84;21076;-71
2022/07/31 08:38:03;;;;;;;1.95;1.60;;;;;;;26.36;41.67;99652.80;1701944;84;21557;-74
2022/07/31 08:40:31;;;;;;;3.45;2.08;;;;;;;26.41;41.16;99651.73;1701970;84;21069;-73
2022/07/31 08:42:59;;;;;;;9.30;2.85;;;;;;;26.42;40.36;99655.52;1679637;84;21081;-74
2022/07/31 08:45:26;;;;;;;2.65;1.80;;;;;;;26.46;40.32;99653.66;1673977;85;21058;-74
2022/07/31 08:48:03;;;;;;;3.35;1.90;;;;;;;26.53;41.16;99646.69;1669575;84;21019;-72
2022/07/31 08:50:33;;;;;;;2.22;1.70;;;;;;;26.61;41.07;99647.09;1646329;87;21840;-74
2022/07/31 08:53:01;;;;;;;3.67;1.60;;;;;;;26.67;41.00;99645.07;1652347;84;21077;-72
2022/07/31 08:55:30;;;;;;;2.52;1.95;;;;;;;26.68;41.52;99648.63;1652712;84;21162;-74
2022/07/31 08:57:57;;;;;;;2.37;1.70;;;;;;;26.74;41.39;99641.69;1630496;85;21099;-73
2022/07/31 09:00:28;;;;;;;1.80;1.70;;;;;;;26.77;41.37;99647.28;1656662;84;21519;-70
2022/07/31 09:02:55;;;;;;;5.50;1.77;;;;;;;26.82;41.38;99631.03;1680875;84;21128;-77
2022/07/31 09:05:38;;;;;;;1.87;1.67;;;;;;;26.91;41.07;99629.50;1682064;83;21930;-77
2022/07/31 09:08:06;;;;;;;4.17;1.60;;;;;;;27.00;40.49;99628.72;1689867;83;20998;-71
2022/07/31 09:10:33;;;;;;;1.75;1.57;;;;;;;27.07;39.91;99617.23;1698877;83;21098;-72
2022/07/31 09:13:13;;;;;;;3.75;1.80;;;;;;;27.15;39.11;99623.70;1667340;84;21052;-74
2022/07/31 09:15:40;;;;;;;3.67;1.82;;;;;;;27.21;39.38;99621.68;1649066;84;21339;-76
2022/07/31 09:18:20;;;;;;;4.53;1.75;;;;;;;27.27;39.26;99609.77;1648393;84;20929;-75
2022/07/31 09:21:01;;;;;;;2.08;1.50;;;;;;;27.34;39.20;99604.37;1647261;85;21064;-73
2022/07/31 09:23:29;;;;;;;4.33;1.72;;;;;;;27.44;39.49;99614.05;1694646;84;21187;-73
2022/07/31 09:25:59;;;;;;;1.67;1.45;;;;;;;27.48;39.41;99612.95;1683118;83;21343;-73
2022/07/31 09:28:37;;;;;;;9.33;1.60;;;;;;;27.53;39.07;99601.63;1646498;86;21148;-74
2022/07/31 09:31:07;;;;;;;2.22;1.50;;;;;;;27.59;38.86;99600.17;1662167;84;21573;-74
2022/07/31 09:33:52;;;;;;;1.55;1.45;;;;;;;27.65;38.71;99595.96;1704944;84;21008;-73
2022/07/31 09:36:35;;;;;;;1.80;1.65;;;;;;;27.73;38.85;99599.64;1666246;84;20963;-74
2022/07/31 09:39:13;;;;;;;8.68;1.60;;;;;;;27.80;39.12;99597.61;1674021;85;20992;-73
2022/07/31 09:41:50;;;;;;;5.72;1.80;;;;;;;27.87;38.69;99601.28;1614419;83;20941;-77
2022/07/31 09:44:19;;;;;;;1.72;1.60;;;;;;;27.97;38.86;99599.88;1670544;83;21728;-74
2022/07/31 09:46:47;;;;;;;3.95;2.47;;;;;;;28.06;38.47;99606.77;1658396;85;24196;-75
2022/07/31 09:49:14;;;;;;;2.85;1.80;;;;;;;28.15;38.27;99604.58;1671557;84;21018;-72
2022/07/31 09:51:43;;;;;;;3.80;1.87;;;;;;;28.19;38.15;99600.52;1665777;84;21038;-73
2022/07/31 09:54:22;;;;;;;3.33;2.27;;;;;;;28.18;38.64;99602.48;1660995;84;21124;-70
2022/07/31 09:56:52;;;;;;;5.25;2.08;;;;;;;28.20;38.78;99588.29;1692522;84;21010;-74
2022/07/31 09:59:19;;;;;;;4.97;2.08;;;;;;;28.22;38.39;99592.84;1692687;83;21113;-74
2022/07/31 10:01:49;;;;;;;4.95;3.02;;;;;;;28.27;38.20;99589.77;1695648;84;21020;-76
2022/07/31 10:04:18;;;;;;;6.85;2.27;;;;;;;28.30;38.03;99574.42;1705114;82;21018;-74
2022/07/31 10:06:48;;;;;;;8.60;2.05;;;;;;;28.35;38.19;99580.98;1676849;84;21137;-73
2022/07/31 10:09:18;;;;;;;1.50;1.20;;;;;;;28.42;38.17;99570.84;1672067;83;21558;-73
2022/07/31 10:12:06;;;;;;;1.75;1.65;;;;;;;28.50;37.79;99581.42;1666775;85;20960;-74
2022/07/31 10:14:38;;;;;;;3.85;1.50;;;;;;;28.47;37.70;99578.03;1689689;83;21049;-77
2022/07/31 10:17:06;;;;;;;3.92;1.67;;;;;;;28.51;37.73;99574.73;1706315;83;36442;-75
2022/07/31 10:19:40;;;;;;;1.40;1.30;;;;;;;28.52;37.87;99577.72;1665859;83;21160;-73
2022/07/31 10:22:24;;;;;;;8.23;2.70;;;;;;;28.53;37.92;99570.44;1674597;83;21034;-75
2022/07/31 10:24:52;;;;;;;1.87;1.70;;;;;;;28.57;37.34;99560.80;1695464;84;21664;-74
2022/07/31 10:27:22;;;;;;;2.12;1.85;;;;;;;28.68;37.07;99565.11;1675336;82;21095;-72
2022/07/31 10:29:50;;;;;;;4.65;1.45;;;;;;;28.78;36.65;99555.57;1670955;84;21158;-71
2022/07/31 10:32:18;;;;;;;2.42;2.15;;;;;;;28.90;36.62;99561.48;1692263;84;21836;-72
2022/07/31 10:34:47;;;;;;;9.18;2.22;;;;;;;29.00;36.41;99555.28;1658155;83;21010;-72
2022/07/31 10:37:39;;;;;;;1.60;1.50;;;;;;;29.06;36.49;99561.30;1672690;85;21358;-72
2022/07/31 10:40:25;;;;;;;4.00;1.57;;;;;;;29.13;35.86;99564.94;1605686;84;21655;-73
2022/07/31 10:43:21;;;;;;;2.20;2.00;;;;;;;29.15;35.99;99554.88;1659565;84;22216;-70
2022/07/31 10:45:52;;;;;;;4.22;2.30;;;;;;;29.20;36.02;99547.61;1699014;83;21164;-70
2022/07/31 10:48:21;;;;;;;6.08;1.70;;;;;;;29.23;35.99;99547.65;1700049;84;21610;-69
2022/07/31 10:51:04;;;;;;;2.35;1.80;;;;;;;29.32;35.93;99544.61;1700622;83;21082;-70
2022/07/31 10:53:57;;;;;;;;;;;;;;;29.40;35.83;99552.61;1690701;84;21532;-74
2022/07/31 10:56:26;;;;;;;1.85;1.57;;;;;;;29.46;35.84;99545.56;1691044;84;20185;-74
2022/07/31 10:59:01;;;;;;;2.60;1.70;;;;;;;29.49;35.54;99546.80;1700016;84;21811;-72
2022/07/31 11:01:30;;;;;;;2.20;1.47;;;;;;;29.56;35.57;99545.47;1628685;84;21595;-75
2022/07/31 11:04:04;;;;;;;2.02;1.92;;;;;;;29.61;35.28;99540.16;1663462;83;21034;-72
2022/07/31 11:06:40;;;;;;;4.12;1.62;;;;;;;29.64;35.37;99541.58;1691021;83;20995;-72
2022/07/31 11:09:28;;;;;;;2.67;1.72;;;;;;;29.68;35.19;99536.89;1663431;85;21019;-72
2022/07/31 11:11:56;;;;;;;4.50;2.37;;;;;;;29.77;35.22;99540.73;1646865;84;21089;-77
2022/07/31 11:14:40;;;;;;;2.65;1.40;;;;;;;29.84;34.83;99530.48;1694110;83;21001;-76
2022/07/31 11:17:08;;;;;;;3.47;2.27;;;;;;;29.91;34.78;99536.73;1686632;83;21504;-75
2022/07/31 11:19:43;;;;;;;4.62;2.45;;;;;;;29.91;34.80;99535.93;1707589;82;20958;-76
2022/07/31 11:22:13;;;;;;;3.20;1.90;;;;;;;29.85;34.87;99529.91;1708041;84;21598;-75
2022/07/31 11:24:40;;;;;;;8.80;2.02;;;;;;;29.90;34.93;99524.03;1707876;84;22823;-76
2022/07/31 11:27:08;;;;;;;4.92;2.40;;;;;;;30.01;34.93;99519.97;1707417;83;21033;-74
2022/07/31 11:29:37;;;;;;;6.10;1.98;;;;;;;30.08;34.81;99520.81;1702742;82;20932;-77
2022/07/31 11:32:13;;;;;;;6.78;2.00;;;;;;;30.08;34.63;99516.65;1705198;83;21077;-74
2022/07/31 11:34:54;;;;;;;3.42;2.00;;;;;;;30.15;34.33;99520.08;1705424;83;21085;-76
2022/07/31 11:37:27;;;;;;;3.27;1.65;;;;;;;30.20;34.08;99514.97;1678327;85;21167;-75
2022/07/31 11:39:54;;;;;;;10.03;1.95;;;;;;;30.26;33.79;99517.57;1679236;85;20989;-75
2022/07/31 11:42:25;;;;;;;7.12;2.10;;;;;;;30.26;34.14;99512.64;1698303;83;21105;-75
2022/07/31 11:44:51;;;;;;;5.55;2.35;;;;;;;30.29;34.14;99511.85;1707586;84;21029;-74
2022/07/31 11:47:18;;;;;;;7.62;1.92;;;;;;;30.35;33.96;99506.73;1693259;84;21028;-73
2022/07/31 11:49:44;;;;;;;5.33;2.17;;;;;;;30.33;33.51;99506.53;1708192;82;21112;-73